Time;durP1;ratioP1;P1;durP2;ratioP2;P2;SDS_P1;SDS_P2;PMS_P1;PMS_P2;Temp;Humidity;BMP_temperature;BMP_pressure;BME280_temperature;BME280_humidity;BME280_pressure;Samples;Min_cycle;Max_cycle;Signal;HPM_P1;HPM_P2
2022/11/10 00:02:09;;;;;;;2.72;0.90;;;;;;;14.90;46.97;102011.75;5053670;28;20449;-52
2022/11/10 00:04:36;;;;;;;2.05;0.43;;;;;;;14.86;47.13;102023.97;5049201;28;20056;-55
2022/11/10 00:07:02;;;;;;;2.15;1.02;;;;;;;14.86;47.98;102026.66;5051633;28;20036;-55
2022/11/10 00:09:28;;;;;;;2.78;0.80;;;;;;;14.77;47.60;102027.91;5054283;28;20057;-56
2022/11/10 00:11:54;;;;;;;5.20;0.90;;;;;;;14.62;48.51;102025.41;5054198;28;20385;-53
2022/11/10 00:17:05;;;;;;;4.35;1.17;;;;;;;14.45;48.99;102033.00;5054268;28;20056;-54
2022/11/10 00:19:33;;;;;;;2.75;0.88;;;;;;;14.58;49.23;102034.09;5054215;28;20032;-55
2022/11/10 00:22:00;;;;;;;1.15;0.60;;;;;;;14.51;49.20;102042.16;5081642;22;20044;-55
2022/11/10 00:24:28;;;;;;;2.20;0.80;;;;;;;14.15;50.42;102045.06;5080548;28;20036;-55
2022/11/10 00:26:55;;;;;;;1.77;0.80;;;;;;;14.24;50.68;102042.03;5074571;28;20558;-53
2022/11/10 00:29:22;;;;;;;2.00;0.90;;;;;;;14.05;51.42;102055.38;5074315;28;20024;-55
2022/11/10 00:31:48;;;;;;;1.60;0.70;;;;;;;14.15;51.55;102053.16;5074388;28;20063;-56
2022/11/10 00:34:16;;;;;;;2.50;0.90;;;;;;;13.99;51.87;102057.88;5074497;28;20037;-55
2022/11/10 00:36:43;;;;;;;5.43;1.17;;;;;;;14.03;51.99;102057.44;5095141;28;20059;-54
2022/11/10 00:39:11;;;;;;;1.92;0.75;;;;;;;14.04;51.86;102061.81;5094577;28;20107;-55
2022/11/10 00:41:37;;;;;;;3.30;0.90;;;;;;;14.04;51.91;102059.94;5094368;28;20482;-55
2022/11/10 00:44:03;;;;;;;1.63;0.70;;;;;;;13.84;52.88;102065.22;5094117;28;20032;-54
2022/11/10 00:46:29;;;;;;;3.40;1.05;;;;;;;13.98;52.84;102061.56;5094499;28;20056;-54
2022/11/10 00:48:55;;;;;;;1.92;0.82;;;;;;;14.09;52.73;102062.88;5093870;28;20032;-57
2022/11/10 00:51:25;;;;;;;2.45;1.15;;;;;;;13.97;53.04;102061.75;5091370;28;20093;-54
2022/11/10 00:53:51;;;;;;;1.98;0.85;;;;;;;14.14;53.01;102071.19;5088329;28;20048;-54
2022/11/10 00:56:19;;;;;;;3.65;1.08;;;;;;;13.94;53.50;102081.84;5079451;28;20016;-54
2022/11/10 00:58:45;;;;;;;1.15;0.60;;;;;;;13.89;54.48;102081.59;5085772;28;20032;-54
2022/11/10 01:01:12;;;;;;;2.78;0.80;;;;;;;13.85;54.38;102076.81;5092760;28;20067;-53
2022/11/10 01:03:38;;;;;;;5.10;1.00;;;;;;;13.73;54.76;102076.53;5073493;28;20085;-54
2022/11/10 01:06:13;;;;;;;3.33;0.90;;;;;;;13.57;55.63;102083.03;5074019;28;20040;-56
2022/11/10 01:08:41;;;;;;;1.90;0.70;;;;;;;13.47;55.96;102088.75;5073545;28;20070;-54
2022/11/10 01:11:28;;;;;;;3.70;1.30;;;;;;;13.54;55.47;102090.66;5073666;28;20266;-52
2022/11/10 01:13:55;;;;;;;3.33;1.10;;;;;;;13.34;56.49;102094.03;5072588;28;20040;-54
2022/11/10 01:16:29;;;;;;;4.10;1.30;;;;;;;13.22;56.62;102089.38;5073556;28;20090;-51
2022/11/10 01:18:57;;;;;;;3.85;1.20;;;;;;;13.21;56.81;102091.19;5073655;28;20025;-52
2022/11/10 01:21:25;;;;;;;3.80;1.23;;;;;;;13.08;57.42;102105.31;5073435;28;20040;-54
2022/11/10 01:23:52;;;;;;;3.67;1.23;;;;;;;13.16;57.43;102104.38;5073709;28;20108;-54
2022/11/10 01:26:18;;;;;;;4.28;1.40;;;;;;;13.23;57.49;102105.31;5073327;28;20115;-55
2022/11/10 01:28:45;;;;;;;2.90;1.20;;;;;;;13.12;57.66;102119.22;5073036;28;20555;-54
2022/11/10 01:31:17;;;;;;;3.28;0.93;;;;;;;13.20;57.51;102117.22;5073485;28;20472;-53
2022/11/10 01:33:44;;;;;;;7.50;1.45;;;;;;;13.23;57.84;102126.81;5073289;28;20020;-51
2022/11/10 01:36:10;;;;;;;3.63;0.93;;;;;;;13.23;57.82;102131.38;5073005;28;20092;-54
2022/11/10 01:38:39;;;;;;;5.45;1.20;;;;;;;13.10;58.46;102132.00;5084624;28;20040;-52
2022/11/10 01:41:08;;;;;;;4.43;1.20;;;;;;;12.98;58.88;102131.69;5091914;28;20390;-55
2022/11/10 01:43:34;;;;;;;1.65;0.70;;;;;;;12.89;59.20;102141.72;5086887;28;20606;-53
2022/11/10 01:46:02;;;;;;;4.00;1.10;;;;;;;12.84;59.35;102144.16;5085863;28;20069;-54
2022/11/10 01:48:33;;;;;;;4.22;1.27;;;;;;;12.81;59.67;102143.69;5088549;28;20028;-54
2022/11/10 01:51:03;;;;;;;5.40;1.63;;;;;;;12.81;60.21;102149.06;5083359;28;20028;-55
2022/11/10 01:53:34;;;;;;;4.38;1.10;;;;;;;12.78;60.43;102147.59;5085722;28;20028;-55
2022/11/10 01:56:02;;;;;;;3.10;1.13;;;;;;;12.74;60.58;102148.16;5093227;28;20020;-55
2022/11/10 01:58:33;;;;;;;3.00;1.10;;;;;;;12.69;60.63;102149.53;5087462;28;20099;-55
2022/11/10 02:00:59;;;;;;;2.40;1.25;;;;;;;12.73;60.73;102141.94;5085894;28;20495;-54
2022/11/10 02:03:46;;;;;;;3.33;1.15;;;;;;;12.69;60.63;102146.03;5085799;28;20032;-52
2022/11/10 02:06:15;;;;;;;6.65;1.33;;;;;;;12.65;60.56;102156.31;5091206;28;20114;-55
2022/11/10 02:08:43;;;;;;;6.45;1.42;;;;;;;12.41;62.06;102154.75;5086601;28;20032;-52
2022/11/10 02:11:10;;;;;;;4.82;1.20;;;;;;;12.79;61.41;102148.44;5087402;28;20502;-56
2022/11/10 02:13:37;;;;;;;3.95;1.13;;;;;;;12.56;61.47;102154.75;5084598;28;20036;-54
2022/11/10 02:16:03;;;;;;;5.18;1.50;;;;;;;12.48;61.83;102162.06;5072371;28;20392;-54
2022/11/10 02:18:29;;;;;;;4.75;1.42;;;;;;;12.50;62.32;102163.56;5072365;28;20034;-55
2022/11/10 02:20:55;;;;;;;2.55;1.10;;;;;;;12.37;62.14;102156.16;5072432;28;20434;-53
2022/11/10 02:23:31;;;;;;;2.22;1.35;;;;;;;12.29;62.36;102169.69;5088806;28;20036;-54
2022/11/10 02:25:57;;;;;;;;;;;;;;;12.24;62.63;102168.56;5089568;28;20653;-53
2022/11/10 02:28:24;;;;;;;2.78;1.33;;;;;;;12.23;62.85;102167.72;5072002;28;19913;-55
2022/11/10 02:30:51;;;;;;;3.92;1.40;;;;;;;12.08;63.25;102181.13;5087164;28;20103;-53
2022/11/10 02:33:17;;;;;;;3.97;1.52;;;;;;;12.09;63.74;102180.09;5091216;28;20087;-52
2022/11/10 02:35:45;;;;;;;3.90;1.65;;;;;;;12.03;63.80;102182.69;5089630;28;20031;-54
2022/11/10 02:38:12;;;;;;;4.72;1.80;;;;;;;11.95;63.92;102180.94;5085928;28;20032;-51
2022/11/10 02:40:38;;;;;;;4.03;2.08;;;;;;;11.95;63.88;102190.84;5087036;28;20540;-53
2022/11/10 02:43:08;;;;;;;3.78;2.25;;;;;;;11.92;64.14;102193.88;5092235;28;20446;-53
2022/11/10 02:45:34;;;;;;;3.45;2.17;;;;;;;11.88;64.48;102191.56;5090963;28;20032;-52
2022/11/10 02:48:00;;;;;;;5.65;2.22;;;;;;;11.88;64.84;102196.94;5090619;28;20392;-49
2022/11/10 02:50:26;;;;;;;7.20;1.67;;;;;;;11.85;64.63;102194.59;5091132;28;20035;-51
2022/11/10 02:52:52;;;;;;;4.20;1.70;;;;;;;11.83;64.78;102204.69;5091146;28;20087;-51
2022/11/10 02:55:19;;;;;;;5.28;1.65;;;;;;;11.74;64.73;102205.72;5090722;28;20039;-55
2022/11/10 02:57:45;;;;;;;7.88;1.98;;;;;;;11.82;64.89;102210.22;5091926;28;20032;-55
2022/11/10 03:00:11;;;;;;;4.90;1.83;;;;;;;11.77;65.19;102212.56;5088117;28;20024;-55
2022/11/10 03:02:37;;;;;;;2.53;1.50;;;;;;;11.71;65.29;102221.34;5089626;28;20028;-56
2022/11/10 03:05:04;;;;;;;3.60;1.70;;;;;;;11.60;65.73;102222.59;5081161;28;20078;-56
2022/11/10 03:07:30;;;;;;;2.20;1.40;;;;;;;11.54;65.70;102224.13;5085176;28;20056;-56
2022/11/10 03:09:56;;;;;;;6.57;1.80;;;;;;;11.58;66.06;102221.94;5071905;22;20052;-56
2022/11/10 03:12:22;;;;;;;4.88;2.20;;;;;;;11.52;66.47;102226.19;5068701;28;20028;-56
2022/11/10 03:14:49;;;;;;;4.15;1.73;;;;;;;11.56;66.65;102223.97;5070182;28;20029;-56
2022/11/10 03:17:15;;;;;;;3.00;1.52;;;;;;;11.53;66.99;102230.53;5070701;28;20033;-56
2022/11/10 03:19:41;;;;;;;3.33;1.70;;;;;;;11.55;67.39;102225.84;5056240;28;20029;-55
2022/11/10 03:22:07;;;;;;;3.83;2.00;;;;;;;11.51;67.40;102229.88;5060431;28;20040;-56
2022/11/10 03:24:33;;;;;;;4.97;1.90;;;;;;;11.58;67.89;102232.69;5036109;28;20036;-55
2022/11/10 03:27:00;;;;;;;4.53;2.47;;;;;;;11.40;68.23;102241.00;5050986;28;20031;-56
2022/11/10 03:29:26;;;;;;;7.28;2.33;;;;;;;11.41;68.18;102233.78;5052952;28;20333;-55
2022/11/10 03:31:52;;;;;;;4.25;2.40;;;;;;;11.39;68.07;102247.38;5066979;28;20025;-55
2022/11/10 03:34:18;;;;;;;6.30;2.60;;;;;;;11.34;68.22;102250.59;5052527;28;20029;-55
2022/11/10 03:36:44;;;;;;;3.92;2.00;;;;;;;11.33;67.98;102251.63;5060729;28;20029;-55
2022/11/10 03:39:11;;;;;;;3.92;2.63;;;;;;;11.36;68.04;102253.94;5065894;28;20420;-56
2022/11/10 03:41:37;;;;;;;4.68;2.20;;;;;;;11.30;68.26;102243.91;5066044;28;20574;-57
2022/11/10 03:44:03;;;;;;;5.25;2.50;;;;;;;11.39;68.51;102257.28;5068832;28;20044;-56
2022/11/10 03:46:29;;;;;;;5.60;2.65;;;;;;;11.36;69.24;102251.25;5070882;28;20511;-57
2022/11/10 03:48:56;;;;;;;6.38;2.40;;;;;;;11.41;69.17;102249.88;5068498;28;20081;-57
2022/11/10 03:51:22;;;;;;;5.05;2.10;;;;;;;11.51;69.06;102253.19;5069133;28;20482;-57
2022/11/10 03:53:48;;;;;;;6.22;2.78;;;;;;;11.49;68.88;102252.50;5061053;28;20035;-55
2022/11/10 03:56:15;;;;;;;4.88;1.95;;;;;;;11.79;67.43;102254.31;5058980;28;20036;-56
2022/11/10 03:58:41;;;;;;;4.80;2.00;;;;;;;11.88;67.11;102247.91;5064762;28;20029;-57
2022/11/10 04:01:07;;;;;;;7.30;2.60;;;;;;;11.64;67.76;102242.69;5066262;28;20433;-57
2022/11/10 04:03:34;;;;;;;8.55;2.28;;;;;;;11.58;68.31;102248.75;5061382;28;20033;-56
2022/11/10 04:08:59;;;;;;;6.88;2.40;;;;;;;11.64;68.45;102248.03;5070217;28;20056;-56
2022/11/10 04:17:01;;;;;;;9.30;2.20;;;;;;;11.39;68.62;102257.28;5054923;28;20080;-56
2022/11/10 04:19:28;;;;;;;4.10;1.98;;;;;;;11.31;68.69;102258.16;5039386;28;20501;-56
2022/11/10 04:21:54;;;;;;;4.18;1.50;;;;;;;11.29;68.57;102260.19;5063016;28;20052;-57
2022/11/10 04:24:20;;;;;;;5.68;1.30;;;;;;;11.24;68.38;102267.91;5067173;28;20029;-57
2022/11/10 04:26:47;;;;;;;3.42;1.65;;;;;;;11.21;68.45;102268.25;5065524;28;20437;-56
2022/11/10 04:29:16;;;;;;;4.57;1.38;;;;;;;11.20;68.18;102271.94;5060168;28;20544;-56
2022/11/10 04:31:43;;;;;;;3.67;1.50;;;;;;;11.12;68.21;102275.50;5072583;28;20024;-56
2022/11/10 04:34:14;;;;;;;3.70;1.30;;;;;;;11.04;68.41;102279.03;5072723;28;20638;-57
2022/11/10 04:36:42;;;;;;;2.75;1.30;;;;;;;10.98;68.27;102289.63;5073530;28;20101;-57
2022/11/10 04:39:09;;;;;;;3.28;1.77;;;;;;;10.91;68.55;102286.81;5061341;28;20060;-57
2022/11/10 04:41:36;;;;;;;6.32;2.22;;;;;;;10.79;68.61;102285.50;5065061;28;20099;-57
2022/11/10 04:44:03;;;;;;;4.40;1.95;;;;;;;10.85;68.64;102295.53;5071475;28;20032;-55
2022/11/10 04:46:35;;;;;;;3.17;1.83;;;;;;;10.72;68.94;102290.72;5072400;28;20027;-56
2022/11/10 04:49:03;;;;;;;3.92;1.73;;;;;;;10.66;69.03;102293.22;5072085;28;20056;-57
2022/11/10 04:51:35;;;;;;;7.55;2.42;;;;;;;10.51;69.41;102282.41;5088291;28;20080;-57
2022/11/10 04:54:02;;;;;;;4.47;2.33;;;;;;;10.51;69.52;102291.25;5072652;28;20118;-57
2022/11/10 04:56:28;;;;;;;4.68;2.28;;;;;;;10.48;69.36;102290.75;5068102;28;20032;-56
2022/11/10 04:58:55;;;;;;;6.07;2.38;;;;;;;10.39;69.58;102294.47;5072985;28;20039;-56
2022/11/10 05:01:25;;;;;;;4.22;2.30;;;;;;;10.32;69.61;102296.97;5068027;28;20032;-57
2022/11/10 05:03:53;;;;;;;3.95;2.10;;;;;;;10.25;69.62;102310.19;5052966;28;20028;-56
2022/11/10 05:06:20;;;;;;;5.93;2.42;;;;;;;10.31;69.49;102314.84;5033870;28;20076;-56
2022/11/10 05:08:46;;;;;;;5.03;2.33;;;;;;;10.08;70.42;102311.16;5066323;28;20154;-56
2022/11/10 05:11:13;;;;;;;5.25;2.53;;;;;;;10.03;70.34;102313.50;5065439;28;20490;-57
2022/11/10 05:13:40;;;;;;;6.50;2.63;;;;;;;10.03;70.37;102313.50;5070439;28;20085;-56
2022/11/10 05:16:07;;;;;;;8.60;3.10;;;;;;;9.92;70.58;102316.50;5072775;28;20058;-56
2022/11/10 05:18:33;;;;;;;7.57;3.03;;;;;;;9.88;70.78;102323.16;5072075;28;20472;-57
2022/11/10 05:21:00;;;;;;;4.80;2.95;;;;;;;9.86;70.74;102317.16;5071638;28;20536;-56
2022/11/10 05:23:38;;;;;;;7.97;2.97;;;;;;;9.78;70.76;102323.34;5072435;28;20029;-56
2022/11/10 05:26:13;;;;;;;4.90;3.05;;;;;;;9.78;70.85;102329.53;5055062;28;20477;-57
2022/11/10 05:28:40;;;;;;;6.07;3.50;;;;;;;9.78;70.84;102334.03;5055014;28;20025;-56
2022/11/10 05:31:07;;;;;;;4.80;3.30;;;;;;;9.77;71.32;102327.84;5066964;28;20060;-56
2022/11/10 05:33:35;;;;;;;6.45;3.58;;;;;;;9.64;71.83;102327.47;5071812;28;20103;-56
2022/11/10 05:36:01;;;;;;;8.38;4.35;;;;;;;9.98;71.62;102334.56;5052522;28;20168;-56
2022/11/10 05:38:27;;;;;;;7.80;3.88;;;;;;;10.01;71.36;102328.88;5038066;28;20107;-56
2022/11/10 05:40:53;;;;;;;6.43;3.00;;;;;;;9.92;72.00;102336.06;5063645;28;20073;-56
2022/11/10 05:43:19;;;;;;;8.50;3.30;;;;;;;9.47;73.17;102333.78;5073420;28;20020;-56
2022/11/10 05:45:46;;;;;;;6.38;3.03;;;;;;;9.25;74.38;102337.88;5071873;28;20040;-56
2022/11/10 05:48:12;;;;;;;8.95;2.80;;;;;;;9.26;74.43;102342.22;5071394;28;20028;-56
2022/11/10 05:50:38;;;;;;;7.18;3.13;;;;;;;9.16;75.12;102337.00;5071428;28;20500;-56
2022/11/10 05:53:04;;;;;;;5.18;2.72;;;;;;;9.21;75.49;102339.19;5071036;28;20083;-56
2022/11/10 05:55:31;;;;;;;5.13;2.70;;;;;;;9.40;75.44;102340.78;5055553;28;20426;-56
2022/11/10 05:57:57;;;;;;;6.45;3.00;;;;;;;9.20;75.65;102343.69;5053394;28;20053;-56
2022/11/10 06:00:26;;;;;;;6.05;2.92;;;;;;;9.18;75.95;102339.50;5071102;28;20035;-56
2022/11/10 06:03:06;;;;;;;6.57;3.22;;;;;;;9.10;76.97;102344.81;5059216;28;20409;-56
2022/11/10 06:05:35;;;;;;;5.32;3.50;;;;;;;8.84;77.63;102345.69;5065098;28;20032;-56
2022/11/10 06:08:03;;;;;;;4.18;2.67;;;;;;;8.82;78.14;102341.47;5068324;28;20027;-56
2022/11/10 06:10:30;;;;;;;5.95;3.10;;;;;;;8.84;78.56;102339.50;5061616;28;20072;-56
2022/11/10 06:12:57;;;;;;;6.88;2.97;;;;;;;8.55;79.18;102346.00;5072762;28;20536;-56
2022/11/10 06:15:24;;;;;;;6.63;3.28;;;;;;;8.58;79.59;102348.34;5070893;28;20032;-56
2022/11/10 06:17:51;;;;;;;4.25;3.05;;;;;;;8.53;79.90;102342.63;5072076;28;20052;-57
2022/11/10 06:20:17;;;;;;;5.05;2.75;;;;;;;8.52;79.47;102340.13;5062464;28;20156;-56
2022/11/10 06:23:00;;;;;;;4.82;3.00;;;;;;;8.45;79.65;102334.56;5045244;28;20041;-57
2022/11/10 06:25:28;;;;;;;5.68;3.10;;;;;;;8.39;79.89;102344.03;5062011;28;20029;-56
2022/11/10 06:27:55;;;;;;;7.57;3.47;;;;;;;8.41;79.10;102344.72;5070505;28;20043;-56
2022/11/10 06:30:21;;;;;;;5.85;3.35;;;;;;;8.39;79.28;102349.38;5071143;28;20032;-57
2022/11/10 06:32:48;;;;;;;8.43;2.90;;;;;;;8.49;78.70;102348.44;5069426;28;20051;-57
2022/11/10 06:35:15;;;;;;;6.18;2.97;;;;;;;8.43;78.72;102341.88;5068655;28;20264;-55
2022/11/10 06:37:41;;;;;;;5.22;2.40;;;;;;;8.46;78.70;102345.09;5070286;28;20039;-57
2022/11/10 06:40:10;;;;;;;5.65;2.80;;;;;;;8.32;78.92;102353.59;5063022;28;20020;-56
2022/11/10 06:42:36;;;;;;;5.18;2.90;;;;;;;8.32;78.66;102348.25;5071785;28;20031;-56
2022/11/10 06:45:02;;;;;;;6.13;2.80;;;;;;;8.27;78.56;102347.06;5065059;28;20107;-56
2022/11/10 06:47:29;;;;;;;4.70;2.40;;;;;;;8.20;78.60;102342.34;5072064;28;20024;-57
2022/11/10 06:49:55;;;;;;;6.38;2.60;;;;;;;8.25;78.04;102346.38;5065739;28;20036;-56
2022/11/10 06:52:21;;;;;;;4.15;3.00;;;;;;;8.23;77.54;102348.38;5062562;28;20492;-56
2022/11/10 06:54:47;;;;;;;4.32;2.38;;;;;;;8.22;77.78;102344.88;5064566;28;20030;-56
2022/11/10 06:57:13;;;;;;;7.97;2.47;;;;;;;8.26;77.38;102351.56;5069443;28;20384;-57
2022/11/10 06:59:40;;;;;;;4.57;2.20;;;;;;;8.33;77.48;102346.44;5070219;28;20031;-56
2022/11/10 07:02:12;;;;;;;8.25;2.58;;;;;;;8.34;77.30;102353.47;5054072;28;20075;-57
2022/11/10 07:04:38;;;;;;;4.57;2.83;;;;;;;8.37;76.95;102353.19;5056955;28;20029;-57
2022/11/10 07:07:04;;;;;;;5.35;2.45;;;;;;;8.28;77.23;102354.09;5053167;28;20504;-57
2022/11/10 07:09:31;;;;;;;3.58;2.10;;;;;;;8.29;77.29;102350.41;5058279;28;20229;-57
2022/11/10 07:11:57;;;;;;;2.80;2.28;;;;;;;8.32;76.76;102353.59;5071635;28;20028;-57
2022/11/10 07:14:23;;;;;;;3.95;2.20;;;;;;;8.31;76.88;102356.44;5067949;28;20366;-57
2022/11/10 07:16:49;;;;;;;5.40;2.50;;;;;;;8.27;76.63;102355.06;5071691;28;20123;-56
2022/11/10 07:19:15;;;;;;;5.07;2.25;;;;;;;8.29;76.80;102353.09;5068902;28;20028;-55
2022/11/10 07:21:41;;;;;;;4.90;2.50;;;;;;;8.20;76.88;102347.66;5069137;28;20036;-56
2022/11/10 07:24:08;;;;;;;5.55;2.72;;;;;;;8.15;76.85;102343.78;5067168;28;20059;-56
2022/11/10 07:26:34;;;;;;;4.78;2.20;;;;;;;8.18;76.60;102338.16;5050718;28;20060;-55
2022/11/10 07:29:00;;;;;;;3.42;2.65;;;;;;;8.10;76.74;102341.56;5051051;28;20146;-56
2022/11/10 07:31:26;;;;;;;4.72;2.80;;;;;;;8.24;76.25;102337.53;5070146;28;20036;-56
2022/11/10 07:33:53;;;;;;;2.88;2.08;;;;;;;8.13;76.27;102340.44;5069732;28;20040;-56
2022/11/10 07:36:19;;;;;;;4.47;2.45;;;;;;;8.03;76.60;102340.50;5069934;28;20167;-55
2022/11/10 07:38:45;;;;;;;3.88;2.80;;;;;;;8.00;76.43;102343.50;5069540;28;20025;-56
2022/11/10 07:41:11;;;;;;;3.72;2.40;;;;;;;7.78;77.34;102346.63;5060196;28;20037;-56
2022/11/10 07:43:37;;;;;;;3.92;2.00;;;;;;;7.91;76.96;102352.41;5069366;28;20040;-56
2022/11/10 07:46:04;;;;;;;5.05;2.45;;;;;;;7.96;76.68;102352.78;5070487;28;20028;-56
2022/11/10 07:48:30;;;;;;;4.28;2.17;;;;;;;7.89;76.51;102360.56;5069067;28;20052;-56
2022/11/10 07:50:56;;;;;;;4.85;2.45;;;;;;;7.86;76.68;102362.69;5067824;28;20032;-56
2022/11/10 07:53:22;;;;;;;5.78;2.80;;;;;;;8.00;76.49;102364.00;5068279;28;20064;-56
2022/11/10 07:55:48;;;;;;;2.95;2.03;;;;;;;7.88;76.54;102363.34;5063284;28;20059;-56
2022/11/10 07:58:16;;;;;;;4.68;2.40;;;;;;;7.93;76.15;102355.75;5069911;28;20099;-56
2022/11/10 08:00:44;;;;;;;3.00;2.40;;;;;;;7.86;76.09;102357.34;5066930;28;20035;-56
2022/11/10 08:03:16;;;;;;;4.57;2.40;;;;;;;7.86;76.42;102354.69;5065852;28;20044;-56
2022/11/10 08:05:43;;;;;;;3.85;2.33;;;;;;;7.96;76.51;102357.28;5052116;28;20024;-56
2022/11/10 08:08:09;;;;;;;4.82;1.92;;;;;;;7.78;76.59;102359.94;5067899;28;20380;-55
2022/11/10 08:10:36;;;;;;;2.90;2.60;;;;;;;7.64;76.63;102370.09;5070150;28;20043;-56
2022/11/10 08:13:05;;;;;;;4.03;2.20;;;;;;;7.69;76.45;102369.66;5072314;28;20081;-56
2022/11/10 08:15:33;;;;;;;4.07;2.50;;;;;;;7.76;76.12;102367.22;5073803;28;20415;-56
2022/11/10 08:18:00;;;;;;;4.38;2.83;;;;;;;7.64;76.11;102375.44;5071370;28;20035;-56
2022/11/10 08:20:27;;;;;;;3.67;2.80;;;;;;;7.58;76.53;102375.19;5073098;28;20028;-56
2022/11/10 08:23:04;;;;;;;4.32;2.75;;;;;;;7.74;76.44;102378.06;5074479;28;20534;-56
2022/11/10 08:25:33;;;;;;;3.90;2.75;;;;;;;7.77;76.08;102382.22;5046122;28;20041;-56
2022/11/10 08:28:02;;;;;;;3.35;2.80;;;;;;;7.70;76.26;102375.81;5059690;28;20063;-56
2022/11/10 08:30:29;;;;;;;2.92;2.63;;;;;;;7.76;76.15;102375.22;5072864;28;20511;-56
2022/11/10 08:33:00;;;;;;;3.72;2.80;;;;;;;7.62;76.47;102384.59;5073379;28;20048;-56
2022/11/10 08:35:29;;;;;;;3.78;2.45;;;;;;;7.58;76.68;102383.19;5056733;28;20037;-56
2022/11/10 08:37:55;;;;;;;4.18;2.72;;;;;;;7.48;77.30;102380.56;5062587;28;20036;-56
2022/11/10 08:40:26;;;;;;;4.10;3.28;;;;;;;7.71;76.84;102382.84;5047581;28;20029;-56
2022/11/10 08:43:02;;;;;;;3.20;2.65;;;;;;;7.57;77.15;102379.69;5048986;28;20036;-56
2022/11/10 08:45:29;;;;;;;4.68;2.72;;;;;;;7.89;77.19;102373.88;5052251;28;20025;-56
2022/11/10 08:48:09;;;;;;;6.30;3.28;;;;;;;7.56;77.76;102380.69;5074255;28;20025;-56
2022/11/10 08:50:36;;;;;;;3.83;2.67;;;;;;;7.53;77.85;102377.47;5071992;28;20024;-56
2022/11/10 08:53:13;;;;;;;3.80;3.15;;;;;;;7.32;78.54;102372.38;5073204;28;20085;-56
2022/11/10 08:55:40;;;;;;;4.18;3.17;;;;;;;7.24;78.60;102375.78;5067352;28;20029;-56
2022/11/10 08:58:11;;;;;;;4.43;3.13;;;;;;;7.20;78.44;102378.88;5072804;28;20163;-56
2022/11/10 09:00:37;;;;;;;3.60;2.70;;;;;;;7.15;78.32;102382.81;5038908;28;20048;-56
2022/11/10 09:03:25;;;;;;;4.90;3.47;;;;;;;7.26;77.31;102380.94;5049387;28;20021;-56
2022/11/10 09:05:52;;;;;;;3.50;3.00;;;;;;;7.17;77.76;102384.50;5059958;28;20071;-56
2022/11/10 09:08:18;;;;;;;3.92;3.20;;;;;;;7.10;77.99;102382.41;5071549;28;20031;-55
2022/11/10 09:10:48;;;;;;;3.35;3.05;;;;;;;7.05;77.99;102384.69;5062412;28;20368;-56
2022/11/10 09:13:16;;;;;;;2.70;2.38;;;;;;;7.05;77.63;102378.50;5073643;28;20412;-56
2022/11/10 09:15:43;;;;;;;3.50;2.83;;;;;;;7.01;77.62;102379.78;5067173;28;20059;-56
2022/11/10 09:18:12;;;;;;;3.45;2.67;;;;;;;7.00;77.08;102378.97;5072258;28;20024;-56
2022/11/10 09:20:39;;;;;;;5.38;2.80;;;;;;;6.95;77.31;102381.22;5072520;28;20499;-56
2022/11/10 09:23:07;;;;;;;3.30;3.00;;;;;;;6.72;78.02;102378.06;5067666;28;20382;-56
2022/11/10 09:25:33;;;;;;;3.78;2.83;;;;;;;6.79;77.60;102370.31;5070681;28;20105;-56
2022/11/10 09:28:00;;;;;;;3.10;2.75;;;;;;;6.75;77.30;102376.91;5059949;28;20028;-56
2022/11/10 09:30:26;;;;;;;3.67;3.00;;;;;;;6.94;76.62;102378.69;5066188;28;20035;-56
2022/11/10 09:32:54;;;;;;;5.13;3.08;;;;;;;6.77;76.49;102377.59;5071619;28;20130;-56
2022/11/10 09:35:21;;;;;;;3.63;2.80;;;;;;;6.65;76.21;102368.94;5071198;28;20025;-56
2022/11/10 09:37:48;;;;;;;3.00;2.70;;;;;;;6.51;76.27;102372.91;5073055;28;20037;-56
2022/11/10 09:40:49;;;;;;;2.80;2.60;;;;;;;6.59;76.56;102375.66;5063301;28;20020;-56
2022/11/10 09:43:30;;;;;;;4.13;2.90;;;;;;;6.58;76.55;102376.66;5045339;28;20053;-55
2022/11/10 09:45:59;;;;;;;5.60;2.92;;;;;;;6.45;76.28;102378.78;5072645;28;20064;-56
2022/11/10 09:48:29;;;;;;;3.25;2.97;;;;;;;6.45;76.42;102373.47;5070268;28;20504;-56
2022/11/10 09:51:19;;;;;;;7.05;3.08;;;;;;;6.58;76.31;102368.69;5071405;28;20048;-56
2022/11/10 09:54:13;;;;;;;4.95;2.60;;;;;;;6.48;77.44;102373.16;5059824;28;20060;-56
2022/11/10 09:56:40;;;;;;;3.78;2.70;;;;;;;6.37;77.80;102364.50;5070810;28;20032;-56
2022/11/10 09:59:28;;;;;;;4.40;2.80;;;;;;;6.64;78.21;102374.41;5069553;28;20062;-56
2022/11/10 10:02:18;;;;;;;4.47;2.63;;;;;;;6.94;78.51;102373.34;5070387;28;20060;-56
2022/11/10 10:05:16;;;;;;;3.00;2.30;;;;;;;6.78;78.78;102369.50;5064668;28;20112;-56
2022/11/10 10:07:56;;;;;;;2.90;2.50;;;;;;;6.89;78.85;102371.16;5034874;28;20028;-56
2022/11/10 10:10:46;;;;;;;2.97;2.22;;;;;;;7.05;79.04;102386.50;5067558;28;20123;-55
2022/11/10 10:13:33;;;;;;;3.05;2.65;;;;;;;7.02;79.26;102384.13;5068010;28;20029;-55
2022/11/10 10:16:11;;;;;;;3.55;2.47;;;;;;;6.88;79.21;102385.41;5070961;28;20028;-56
2022/11/10 10:18:58;;;;;;;3.35;2.40;;;;;;;6.72;79.75;102387.81;5070871;28;20430;-56
2022/11/10 10:22:02;;;;;;;2.42;2.22;;;;;;;6.84;79.60;102392.03;5071642;28;20033;-56
2022/11/10 10:24:32;;;;;;;3.90;2.55;;;;;;;6.75;79.73;102384.91;5051283;28;20490;-55
2022/11/10 10:27:05;;;;;;;3.00;2.70;;;;;;;6.64;80.36;102382.38;5054175;28;20098;-55
2022/11/10 10:29:43;;;;;;;3.75;2.67;;;;;;;6.64;80.67;102388.56;5057900;28;20485;-55
2022/11/10 10:32:14;;;;;;;3.03;2.40;;;;;;;6.58;81.03;102387.28;5072536;28;20035;-55
2022/11/10 10:34:42;;;;;;;2.65;2.40;;;;;;;6.81;80.01;102392.31;5070253;28;20025;-56
2022/11/10 10:37:54;;;;;;;3.80;2.65;;;;;;;6.53;80.02;102386.88;5069911;28;20380;-56
2022/11/10 10:40:23;;;;;;;2.75;2.40;;;;;;;6.32;80.39;102388.84;5028438;28;20119;-55
2022/11/10 10:42:49;;;;;;;2.85;2.35;;;;;;;6.50;79.87;102400.47;5053454;28;20024;-56
2022/11/10 10:45:28;;;;;;;3.47;2.33;;;;;;;6.40;80.39;102391.66;5070640;28;20123;-55
2022/11/10 10:47:56;;;;;;;2.45;2.20;;;;;;;6.21;80.59;102392.47;5069575;28;20032;-56
2022/11/10 10:50:34;;;;;;;2.75;2.40;;;;;;;6.40;80.51;102401.47;5070014;28;20036;-56
2022/11/10 10:53:13;;;;;;;3.00;2.40;;;;;;;6.29;80.44;102397.13;5070271;28;20511;-56
2022/11/10 10:55:58;;;;;;;5.40;2.67;;;;;;;6.28;79.86;102395.44;5066265;28;20115;-56
2022/11/10 10:58:34;;;;;;;3.83;2.65;;;;;;;6.20;80.48;102390.81;5070784;28;20469;-56
2022/11/10 11:01:15;;;;;;;3.53;2.60;;;;;;;6.24;80.13;102394.03;5060744;28;20037;-55
2022/11/10 11:03:50;;;;;;;2.67;2.17;;;;;;;6.16;80.33;102388.56;5054663;22;20421;-56
2022/11/10 11:06:16;;;;;;;4.63;2.30;;;;;;;6.17;79.93;102390.28;5065126;28;20024;-56
2022/11/10 11:09:08;;;;;;;3.13;2.28;;;;;;;6.10;80.45;102387.28;5043854;28;20041;-56
2022/11/10 11:11:37;;;;;;;2.78;2.38;;;;;;;6.14;79.77;102385.22;5005212;28;20099;-56
2022/11/10 11:14:25;;;;;;;3.45;2.40;;;;;;;6.13;79.51;102379.06;5040409;28;20048;-55
2022/11/10 11:16:57;;;;;;;3.00;2.00;;;;;;;6.23;78.88;102385.22;5049925;28;20171;-56
2022/11/10 11:19:35;;;;;;;3.17;2.67;;;;;;;6.16;78.94;102381.41;5045386;28;20119;-56
2022/11/10 11:22:13;;;;;;;3.10;2.60;;;;;;;6.06;79.47;102380.59;5046411;28;20029;-55
2022/11/10 11:25:15;;;;;;;2.63;2.25;;;;;;;6.07;79.40;102379.63;5024085;28;20531;-55
2022/11/10 11:27:57;;;;;;;2.72;2.45;;;;;;;6.02;79.10;102382.69;5048203;28;20064;-55
2022/11/10 11:30:37;;;;;;;3.30;2.45;;;;;;;5.96;79.05;102385.06;5022845;28;20061;-55
2022/11/10 11:33:10;;;;;;;2.25;2.08;;;;;;;5.87;79.12;102373.41;5051154;28;20071;-55
2022/11/10 11:36:13;;;;;;;4.60;2.47;;;;;;;5.94;78.81;102374.56;5011641;28;20049;-55
2022/11/10 11:39:24;;;;;;;2.45;2.25;;;;;;;6.14;78.62;102386.06;5016547;28;20049;-56
2022/11/10 11:42:02;;;;;;;3.30;2.72;;;;;;;6.09;78.81;102381.16;5017623;28;20030;-55
2022/11/10 11:44:50;;;;;;;2.90;2.63;;;;;;;5.88;79.77;102383.03;5033169;28;20122;-54
2022/11/10 11:47:45;;;;;;;2.88;2.63;;;;;;;5.83;79.96;102379.97;5047767;28;20120;-56
2022/11/10 11:50:20;;;;;;;3.20;2.90;;;;;;;5.79;80.19;102375.91;5044211;28;20044;-56
2022/11/10 11:53:14;;;;;;;3.72;2.20;;;;;;;5.76;80.31;102378.84;5053373;28;20375;-56
2022/11/10 11:56:05;;;;;;;3.38;2.47;;;;;;;5.77;79.78;102383.16;5045897;28;20029;-56